createdAt,value
2022-10-14T00:01:17.121Z,101103.22
2022-10-14T00:02:19.481Z,101106.25
2022-10-14T00:03:21.681Z,101103.16
2022-10-14T00:04:23.998Z,101105.84
2022-10-14T00:05:26.268Z,101111.53
2022-10-14T00:06:31.498Z,101106.78
2022-10-14T00:07:33.822Z,101110.03
2022-10-14T00:08:36.198Z,101100.75
2022-10-14T00:09:42.158Z,101106.97
2022-10-14T00:10:45.390Z,101105.44
2022-10-14T00:11:48.220Z,101103.59
2022-10-14T00:12:50.738Z,101105.44
2022-10-14T00:13:58.649Z,101104.97
2022-10-14T00:15:01.131Z,101103.25
2022-10-14T00:16:04.463Z,101109.78
2022-10-14T00:17:07.042Z,101096.03
2022-10-14T00:18:09.998Z,101105.03
2022-10-14T00:19:13.589Z,101109.16
2022-10-14T00:20:15.979Z,101099.78
2022-10-14T00:21:19.210Z,101104.13
2022-10-14T00:22:21.583Z,101100.25
2022-10-14T00:23:24.296Z,101103.63
2022-10-14T00:24:26.558Z,101098.72
2022-10-14T00:25:29.437Z,101100.19
2022-10-14T00:26:34.292Z,101100.19
2022-10-14T00:27:36.552Z,101103.25
2022-10-14T00:28:39.612Z,101099.25
2022-10-14T00:29:42.086Z,101095.56
2022-10-14T00:30:54.038Z,101099.75
2022-10-14T00:31:56.285Z,101096.03
2022-10-14T00:32:58.596Z,101099.56
2022-10-14T00:34:00.937Z,101094.13
2022-10-14T00:35:03.364Z,101100.47
2022-10-14T00:36:07.751Z,101101.69
2022-10-14T00:37:10.204Z,101097.84
2022-10-14T00:38:12.442Z,101095.81
2022-10-14T00:39:14.683Z,101099.50
2022-10-14T00:40:17.084Z,101094.13
2022-10-14T00:41:22.833Z,101092.56
2022-10-14T00:42:25.354Z,101097.66
2022-10-14T00:43:28.465Z,101089.94
2022-10-14T00:44:30.602Z,101096.44
2022-10-14T00:45:34.950Z,101088.25
2022-10-14T00:46:39.951Z,101094.78
2022-10-14T00:47:43.721Z,101088.44
2022-10-14T00:48:46.227Z,101088.63
2022-10-14T00:49:48.645Z,101088.63
2022-10-14T00:50:54.520Z,101088.13
2022-10-14T00:52:02.624Z,101092.31
2022-10-14T00:53:06.571Z,101082.72
2022-10-14T00:54:10.326Z,101082.91
2022-10-14T00:55:18.769Z,101075.78
2022-10-14T00:56:27.500Z,101079.97
2022-10-14T00:57:30.882Z,101076.28
2022-10-14T00:58:33.165Z,101080.91
2022-10-14T00:59:35.514Z,101079.75
2022-10-14T01:00:39.409Z,101076.97
2022-10-14T01:01:41.815Z,101088.78
2022-10-14T01:02:44.412Z,101079.09
2022-10-14T01:03:46.667Z,101076.97
2022-10-14T01:04:50.241Z,101076.19
2022-10-14T01:06:32.189Z,101069.97
2022-10-14T01:07:40.487Z,101071.84
2022-10-14T01:08:55.418Z,101058.69
2022-10-14T01:10:36.087Z,101069.22
2022-10-14T01:12:27.353Z,101068.75
2022-10-14T01:13:31.898Z,101062.38
2022-10-14T01:15:05.185Z,101063.75
2022-10-14T01:16:16.277Z,101069.00
2022-10-14T01:18:07.583Z,101067.16
2022-10-14T01:19:12.548Z,101060.81
2022-10-14T01:20:23.393Z,101060.66
2022-10-14T01:21:35.918Z,101060.66
2022-10-14T01:22:50.208Z,101056.94
2022-10-14T01:24:13.629Z,101064.38
2022-10-14T01:25:24.623Z,101062.38
2022-10-14T01:26:45.489Z,101060.81
2022-10-14T01:27:59.548Z,101062.06
2022-10-14T01:29:15.056Z,101056.03
2022-10-14T01:30:22.680Z,101059.59
2022-10-14T01:31:30.671Z,101055.72
2022-10-14T01:32:39.292Z,101056.03
2022-10-14T01:33:46.272Z,101058.34
2022-10-14T01:35:08.675Z,101056.63
2022-10-14T01:36:18.661Z,101054.16
2022-10-14T01:37:26.734Z,101060.66
2022-10-14T01:38:55.695Z,101055.53
2022-10-14T01:40:07.176Z,101048.56
2022-10-14T01:41:19.135Z,101053.41
2022-10-14T01:42:25.129Z,101057.88
2022-10-14T01:43:29.962Z,101055.38
2022-10-14T01:44:34.715Z,101063.16
2022-10-14T01:45:39.149Z,101055.38
2022-10-14T01:46:47.345Z,101053.19
2022-10-14T01:47:51.640Z,101047.34
2022-10-14T01:48:59.156Z,101052.44
2022-10-14T01:50:10.102Z,101048.72
2022-10-14T01:51:18.501Z,101052.28
2022-10-14T01:52:28.153Z,101050.84
2022-10-14T01:53:36.499Z,101046.34
2022-10-14T01:54:42.063Z,101050.53
2022-10-14T01:55:48.322Z,101043.72
2022-10-14T01:56:55.872Z,101043.22
2022-10-14T01:57:59.176Z,101045.28
2022-10-14T01:59:03.234Z,101040.75
2022-10-14T02:00:07.477Z,101039.81
2022-10-14T02:01:16.292Z,101032.97
2022-10-14T02:02:21.043Z,101035.31
2022-10-14T02:03:23.738Z,101044.16
2022-10-14T02:04:26.006Z,101044.44
2022-10-14T02:05:43.279Z,101039.66
2022-10-14T02:07:07.754Z,101040.56
2022-10-14T02:08:26.341Z,101049.22
2022-10-14T02:09:53.489Z,101042.69
2022-10-14T02:11:00.997Z,101047.66
2022-10-14T02:12:39.182Z,101045.19
2022-10-14T02:13:41.449Z,101042.25
2022-10-14T02:14:49.620Z,101044.09
2022-10-14T02:16:12.912Z,101044.28
2022-10-14T02:17:26.043Z,101045.69
2022-10-14T02:19:20.251Z,101045.78
2022-10-14T02:20:54.449Z,101038.34
2022-10-14T02:22:18.958Z,101034.16
2022-10-14T02:23:26.272Z,101042.66
2022-10-14T02:24:36.057Z,101039.56
2022-10-14T02:25:40.792Z,101036.31
2022-10-14T02:26:43.903Z,101039.06
2022-10-14T02:27:47.763Z,101036.13
2022-10-14T02:28:53.125Z,101033.19
2022-10-14T02:29:57.367Z,101037.38
2022-10-14T02:31:04.896Z,101037.81
2022-10-14T02:32:08.661Z,101034.72
2022-10-14T02:33:12.420Z,101036.09
2022-10-14T02:34:18.542Z,101035.47
2022-10-14T02:35:23.945Z,101043.19
2022-10-14T02:36:27.672Z,101034.84
2022-10-14T02:37:30.617Z,101029.25
2022-10-14T02:38:35.908Z,101036.56
2022-10-14T02:39:44.659Z,101033.78
2022-10-14T02:40:50.024Z,101033.47
2022-10-14T02:41:52.250Z,101037.34
2022-10-14T02:42:54.604Z,101036.09
2022-10-14T02:43:57.039Z,101032.09
2022-10-14T02:45:01.180Z,101030.03
2022-10-14T02:46:04.845Z,101031.47
2022-10-14T02:47:07.183Z,101031.19
2022-10-14T02:48:10.424Z,101028.22
2022-10-14T02:49:13.171Z,101033.50
2022-10-14T02:50:15.478Z,101036.91
2022-10-14T02:51:17.861Z,101034.59
2022-10-14T02:52:20.654Z,101039.56
2022-10-14T02:53:23.343Z,101039.56
2022-10-14T02:54:25.695Z,101041.09
2022-10-14T02:55:28.156Z,101038.19
2022-10-14T02:56:30.407Z,101042.66
2022-10-14T02:57:36.287Z,101041.56
2022-10-14T02:58:38.541Z,101038.94
2022-10-14T02:59:40.897Z,101036.38
2022-10-14T03:00:43.167Z,101040.06
2022-10-14T03:01:47.321Z,101032.66
2022-10-14T03:02:50.474Z,101041.03
2022-10-14T03:03:54.274Z,101034.50
2022-10-14T03:04:58.886Z,101039.63
2022-10-14T03:06:02.005Z,101035.88
2022-10-14T03:07:05.265Z,101044.88
2022-10-14T03:08:11.279Z,101037.28
2022-10-14T03:09:14.480Z,101041.28
2022-10-14T03:10:17.627Z,101043.34
2022-10-14T03:11:19.972Z,101040.41
2022-10-14T03:12:22.565Z,101036.19
2022-10-14T03:13:25.818Z,101035.88
2022-10-14T03:14:28.498Z,101038.22
2022-10-14T03:15:31.666Z,101040.06
2022-10-14T03:16:34.880Z,101034.03
2022-10-14T03:17:38.263Z,101037.13
2022-10-14T03:18:41.738Z,101038.22
2022-10-14T03:19:54.219Z,101040.41
2022-10-14T03:20:57.368Z,101032.66
2022-10-14T03:22:06.893Z,101031.72
2022-10-14T03:23:12.383Z,101031.25
2022-10-14T03:24:15.645Z,101041.81
2022-10-14T03:25:18.281Z,101035.56
2022-10-14T03:26:46.521Z,101031.41
2022-10-14T03:27:50.660Z,101036.19
2022-10-14T03:28:52.905Z,101026.56
2022-10-14T03:29:59.274Z,101037.69
2022-10-14T03:31:01.594Z,101031.34
2022-10-14T03:32:23.901Z,101031.84
2022-10-14T03:33:44.969Z,101033.38
2022-10-14T03:34:49.658Z,101029.22
2022-10-14T03:35:56.983Z,101031.88
2022-10-14T03:37:11.610Z,101037.13
2022-10-14T03:38:21.591Z,101041.13
2022-10-14T03:39:24.881Z,101031.09
2022-10-14T03:40:29.406Z,101024.91
2022-10-14T03:41:33.775Z,101025.34
2022-10-14T03:42:36.124Z,101030.94
2022-10-14T03:43:38.508Z,101027.97
2022-10-14T03:44:41.489Z,101026.44
2022-10-14T03:45:53.650Z,101028.75
2022-10-14T03:46:59.223Z,101024.59
2022-10-14T03:48:05.727Z,101027.69
2022-10-14T03:49:08.022Z,101027.38
2022-10-14T03:50:10.463Z,101023.34
2022-10-14T03:51:18.618Z,101026.38
2022-10-14T03:52:22.132Z,101029.00
2022-10-14T03:53:35.196Z,101024.50
2022-10-14T03:54:37.466Z,101025.47
2022-10-14T03:55:40.933Z,101027.25
2022-10-14T03:56:43.649Z,101024.25
2022-10-14T03:57:47.056Z,101023.97
2022-10-14T03:58:56.046Z,101024.91
2022-10-14T03:59:59.629Z,101028.28
2022-10-14T04:01:15.671Z,101025.84
2022-10-14T04:02:37.526Z,101022.59
2022-10-14T04:03:46.689Z,101023.19
2022-10-14T04:04:48.893Z,101023.34
2022-10-14T04:05:54.020Z,101024.72
2022-10-14T04:06:58.697Z,101027.34
2022-10-14T04:08:02.654Z,101023.13
2022-10-14T04:09:05.434Z,101022.66
2022-10-14T04:10:11.961Z,101023.81
2022-10-14T04:11:19.046Z,101022.28
2022-10-14T04:12:23.178Z,101026.75
2022-10-14T04:13:37.265Z,101024.09
2022-10-14T04:14:40.290Z,101032.50
2022-10-14T04:15:42.746Z,101030.94
2022-10-14T04:16:52.917Z,101031.72
2022-10-14T04:17:56.564Z,101026.13
2022-10-14T04:18:59.212Z,101031.41
2022-10-14T04:20:01.734Z,101030.31
2022-10-14T04:21:07.393Z,101032.50
2022-10-14T04:22:11.320Z,101025.97
2022-10-14T04:23:13.974Z,101030.94
2022-10-14T04:24:17.873Z,101031.41
2022-10-14T04:25:39.762Z,101032.94
2022-10-14T04:26:42.999Z,101034.50
2022-10-14T04:27:55.039Z,101026.28
2022-10-14T04:29:01.779Z,101028.47
2022-10-14T04:30:17.505Z,101025.34
2022-10-14T04:31:26.233Z,101026.59
2022-10-14T04:32:35.417Z,101026.81
2022-10-14T04:33:40.670Z,101023.09
2022-10-14T04:34:51.433Z,101030.56
2022-10-14T04:35:58.912Z,101030.84
2022-10-14T04:37:06.806Z,101021.88
2022-10-14T04:38:24.039Z,101032.69
2022-10-14T04:39:34.356Z,101028.69
2022-10-14T04:40:37.556Z,101022.44
2022-10-14T04:41:40.205Z,101018.44
2022-10-14T04:42:42.540Z,101018.75
2022-10-14T04:43:53.679Z,101025.59
2022-10-14T04:45:04.313Z,101028.13
2022-10-14T04:46:21.483Z,101021.88
2022-10-14T04:47:24.566Z,101022.84
2022-10-14T04:48:32.920Z,101018.50
2022-10-14T04:49:35.531Z,101018.06
2022-10-14T04:50:53.741Z,101018.50
2022-10-14T04:52:21.992Z,101016.81
2022-10-14T04:53:37.000Z,101014.34
2022-10-14T04:54:48.276Z,101012.50
2022-10-14T04:55:51.873Z,101011.56
2022-10-14T04:56:54.412Z,101011.88
2022-10-14T04:57:56.818Z,101010.19
2022-10-14T04:59:01.901Z,101004.59
2022-10-14T05:00:27.241Z,101007.53
2022-10-14T05:01:35.712Z,101011.88
2022-10-14T05:02:38.099Z,101009.13
2022-10-14T05:03:40.383Z,101003.53
2022-10-14T05:04:42.650Z,101011.91
2022-10-14T05:05:45.288Z,101010.03
2022-10-14T05:06:48.719Z,101007.59
2022-10-14T05:07:54.841Z,101008.19
2022-10-14T05:09:07.770Z,101004.31
2022-10-14T05:10:10.562Z,101004.00
2022-10-14T05:11:17.032Z,101003.88
2022-10-14T05:12:25.967Z,101009.91
2022-10-14T05:13:33.560Z,101010.53
2022-10-14T05:14:39.921Z,101008.38
2022-10-14T05:15:50.812Z,101006.84
2022-10-14T05:16:54.912Z,101007.91
2022-10-14T05:18:03.250Z,101011.16
2022-10-14T05:19:21.407Z,101014.44
2022-10-14T05:20:26.244Z,101012.75
2022-10-14T05:21:31.437Z,101012.75
2022-10-14T05:22:45.827Z,101009.59
2022-10-14T05:23:48.111Z,101008.25
2022-10-14T05:24:50.390Z,101006.53
2022-10-14T05:25:53.670Z,101007.16
2022-10-14T05:26:57.109Z,101011.50
2022-10-14T05:28:00.516Z,101008.56
2022-10-14T05:29:03.266Z,101011.66
2022-10-14T05:30:11.867Z,101010.56
2022-10-14T05:31:19.312Z,101013.03
2022-10-14T05:32:29.591Z,101007.97
2022-10-14T05:33:37.958Z,101012.75
2022-10-14T05:34:40.234Z,101017.72
2022-10-14T05:36:00.216Z,101019.91
2022-10-14T05:37:07.614Z,101018.69
2022-10-14T05:38:17.432Z,101013.13
2022-10-14T05:39:20.222Z,101013.53
2022-10-14T05:40:23.012Z,101014.78
2022-10-14T05:41:26.956Z,101018.81
2022-10-14T05:42:29.245Z,101021.50
2022-10-14T05:43:33.785Z,101010.50
2022-10-14T05:44:38.911Z,101016.50
2022-10-14T05:45:41.236Z,101020.28
2022-10-14T05:46:43.892Z,101014.78
2022-10-14T05:47:46.953Z,101028.59
2022-10-14T05:48:52.862Z,101024.13
2022-10-14T05:49:55.437Z,101020.09
2022-10-14T05:51:01.688Z,101024.28
2022-10-14T05:52:05.465Z,101016.97
2022-10-14T05:53:08.598Z,101016.22
2022-10-14T05:54:16.771Z,101020.56
2022-10-14T05:55:19.752Z,101028.47
2022-10-14T05:56:23.246Z,101016.69
2022-10-14T05:57:25.620Z,101025.38
2022-10-14T05:58:28.229Z,101015.03
2022-10-14T05:59:30.628Z,101030.66
2022-10-14T06:00:33.456Z,101028.34
2022-10-14T06:01:41.170Z,101027.41
2022-10-14T06:02:43.477Z,101029.75
2022-10-14T06:03:52.997Z,101025.41
2022-10-14T06:04:55.496Z,101025.38
2022-10-14T06:05:59.041Z,101024.31
2022-10-14T06:07:01.280Z,101024.78
2022-10-14T06:08:05.226Z,101031.59
2022-10-14T06:09:11.765Z,101032.06
2022-10-14T06:10:14.286Z,101033.78
2022-10-14T06:11:16.524Z,101028.53
2022-10-14T06:12:19.279Z,101029.88
2022-10-14T06:13:22.816Z,101035.34
2022-10-14T06:14:26.399Z,101039.69
2022-10-14T06:15:28.686Z,101033.19
2022-10-14T06:16:31.516Z,101035.81
2022-10-14T06:17:36.446Z,101042.31
2022-10-14T06:18:39.617Z,101041.22
2022-10-14T06:19:41.934Z,101040.16
2022-10-14T06:20:44.166Z,101044.19
2022-10-14T06:21:46.553Z,101036.13
2022-10-14T06:22:48.741Z,101042.34
2022-10-14T06:23:51.071Z,101041.84
2022-10-14T06:24:53.551Z,101044.47
2022-10-14T06:25:55.834Z,101041.25
2022-10-14T06:26:58.294Z,101040.44
2022-10-14T06:28:05.604Z,101045.91
2022-10-14T06:29:08.224Z,101044.03
2022-10-14T06:30:11.364Z,101048.69
2022-10-14T06:31:13.602Z,101048.88
2022-10-14T06:32:15.871Z,101041.72
2022-10-14T06:33:18.602Z,101051.81
2022-10-14T06:34:23.216Z,101043.56
2022-10-14T06:35:25.651Z,101051.50
2022-10-14T06:36:27.991Z,101054.44
2022-10-14T06:37:30.328Z,101051.47
2022-10-14T06:38:33.629Z,101055.03
2022-10-14T06:39:35.906Z,101060.94
2022-10-14T06:40:38.171Z,101055.50
2022-10-14T06:41:40.456Z,101056.59
2022-10-14T06:42:53.778Z,101055.81
2022-10-14T06:43:56.123Z,101061.56
2022-10-14T06:44:58.350Z,101055.03
2022-10-14T06:46:02.265Z,101054.72
2022-10-14T06:47:06.722Z,101060.56
2022-10-14T06:48:09.572Z,101058.56
2022-10-14T06:49:11.936Z,101056.69
2022-10-14T06:50:14.473Z,101055.56
2022-10-14T06:51:16.738Z,101052.19
2022-10-14T06:52:19.264Z,101053.88
2022-10-14T06:53:21.660Z,101054.75
2022-10-14T06:54:23.912Z,101055.81
2022-10-14T06:55:26.230Z,101052.09
2022-10-14T06:56:28.528Z,101050.38
2022-10-14T06:57:30.960Z,101052.84
2022-10-14T06:58:33.726Z,101053.28
2022-10-14T06:59:36.018Z,101059.19
2022-10-14T07:00:38.417Z,101061.63
2022-10-14T07:01:40.976Z,101057.66
2022-10-14T07:02:44.049Z,101062.00
2022-10-14T07:03:46.777Z,101063.84
2022-10-14T07:04:48.980Z,101064.09
2022-10-14T07:05:51.867Z,101063.91
2022-10-14T07:06:55.332Z,101063.31
2022-10-14T07:07:58.837Z,101059.84
2022-10-14T07:09:01.341Z,101062.50
2022-10-14T07:10:04.218Z,101059.44
2022-10-14T07:11:07.296Z,101066.75
2022-10-14T07:12:09.534Z,101065.47
2022-10-14T07:13:12.209Z,101066.44
2022-10-14T07:14:14.479Z,101061.72
2022-10-14T07:15:16.758Z,101064.56
2022-10-14T07:16:19.102Z,101068.13
2022-10-14T07:17:21.526Z,101061.72
2022-10-14T07:18:24.415Z,101071.22
2022-10-14T07:19:26.880Z,101065.66
2022-10-14T07:20:29.294Z,101068.31
2022-10-14T07:21:31.466Z,101074.66
2022-10-14T07:22:38.791Z,101074.06
2022-10-14T07:23:41.568Z,101079.03
2022-10-14T07:24:44.565Z,101073.88
2022-10-14T07:25:46.917Z,101071.72
2022-10-14T07:26:49.363Z,101074.44
2022-10-14T07:27:53.745Z,101071.72
2022-10-14T07:28:55.980Z,101068.31
2022-10-14T07:29:58.297Z,101081.22
2022-10-14T07:31:03.395Z,101069.38
2022-10-14T07:32:05.666Z,101071.16
2022-10-14T07:33:08.083Z,101076.09
2022-10-14T07:34:10.412Z,101066.38
2022-10-14T07:35:12.697Z,101074.09
2022-10-14T07:36:20.051Z,101078.56
2022-10-14T07:37:25.045Z,101071.66
2022-10-14T07:38:27.390Z,101075.38
2022-10-14T07:39:29.646Z,101068.16
2022-10-14T07:40:31.992Z,101074.09
2022-10-14T07:41:34.508Z,101066.38
2022-10-14T07:42:36.877Z,101065.16
2022-10-14T07:43:39.267Z,101070.56
2022-10-14T07:44:41.759Z,101072.75
2022-10-14T07:45:47.299Z,101063.84
2022-10-14T07:46:50.913Z,101071.69
2022-10-14T07:47:53.259Z,101066.84
2022-10-14T07:48:57.908Z,101071.25
2022-10-14T07:50:02.435Z,101068.81
2022-10-14T07:51:05.854Z,101076.44
2022-10-14T07:52:08.256Z,101065.22
2022-10-14T07:53:10.588Z,101070.84
2022-10-14T07:54:16.438Z,101071.41
2022-10-14T07:55:18.763Z,101072.09
2022-10-14T07:56:21.449Z,101074.31
2022-10-14T07:57:24.242Z,101063.91
2022-10-14T07:58:29.150Z,101070.88
2022-10-14T07:59:31.477Z,101069.06
2022-10-14T08:00:33.776Z,101071.34
2022-10-14T08:01:36.444Z,101073.22
2022-10-14T08:02:38.996Z,101064.50
2022-10-14T08:03:42.136Z,101067.25
2022-10-14T08:04:44.508Z,101063.69
2022-10-14T08:05:50.379Z,101073.00
2022-10-14T08:06:53.262Z,101072.16
2022-10-14T08:07:55.472Z,101063.53
2022-10-14T08:08:57.660Z,101069.38
2022-10-14T08:09:59.936Z,101068.69
2022-10-14T08:11:02.271Z,101074.09
2022-10-14T08:12:04.720Z,101070.81
2022-10-14T08:13:07.561Z,101071.13
2022-10-14T08:14:09.835Z,101068.28
2022-10-14T08:15:11.998Z,101076.56
2022-10-14T08:16:23.242Z,101070.69
2022-10-14T08:17:25.865Z,101077.31
2022-10-14T08:18:28.497Z,101073.88
2022-10-14T08:19:30.859Z,101076.84
2022-10-14T08:20:34.177Z,101078.28
2022-10-14T08:21:36.789Z,101073.50
2022-10-14T08:22:39.059Z,101071.47
2022-10-14T08:23:41.235Z,101067.66
2022-10-14T08:24:44.498Z,101065.09
2022-10-14T08:25:50.170Z,101069.34
2022-10-14T08:26:54.688Z,101062.84
2022-10-14T08:27:58.644Z,101062.69
2022-10-14T08:29:05.680Z,101068.75
2022-10-14T08:30:11.327Z,101067.78
2022-10-14T08:31:16.670Z,101076.38
2022-10-14T08:32:19.121Z,101061.97
2022-10-14T08:33:21.707Z,101066.19
2022-10-14T08:34:24.645Z,101067.59
2022-10-14T08:35:27.475Z,101067.94
2022-10-14T08:36:29.727Z,101066.78
2022-10-14T08:37:31.935Z,101071.00
2022-10-14T08:38:34.190Z,101065.91
2022-10-14T08:39:36.323Z,101069.25
2022-10-14T08:40:58.869Z,101071.28
2022-10-14T08:42:16.403Z,101070.38
2022-10-14T08:43:28.337Z,101070.81
2022-10-14T08:44:56.601Z,101076.72
2022-10-14T08:46:09.540Z,101074.50
2022-10-14T08:47:16.816Z,101078.16
2022-10-14T08:48:22.811Z,101071.03
2022-10-14T08:49:50.022Z,101072.63
2022-10-14T08:51:03.525Z,101069.53
2022-10-14T08:52:12.286Z,101075.75
2022-10-14T08:53:22.766Z,101068.28
2022-10-14T08:54:48.084Z,101068.28
2022-10-14T08:55:54.853Z,101070.72
2022-10-14T08:56:57.909Z,101073.72
2022-10-14T08:58:14.314Z,101080.06
2022-10-14T08:59:20.160Z,101070.94
2022-10-14T09:00:22.993Z,101069.44
2022-10-14T09:01:39.946Z,101070.13
2022-10-14T09:02:51.235Z,101067.38
2022-10-14T09:04:02.560Z,101072.03
2022-10-14T09:05:05.549Z,101064.47
2022-10-14T09:06:13.213Z,101063.69
2022-10-14T09:07:20.490Z,101061.81
2022-10-14T09:08:31.010Z,101068.69
2022-10-14T09:09:40.352Z,101065.03
2022-10-14T09:10:44.120Z,101068.25
2022-10-14T09:11:51.618Z,101067.72
2022-10-14T09:12:59.632Z,101066.72
2022-10-14T09:14:03.054Z,101064.72
2022-10-14T09:15:22.736Z,101066.34
2022-10-14T09:16:31.214Z,101064.13
2022-10-14T09:17:40.493Z,101065.53
2022-10-14T09:18:53.858Z,101060.09
2022-10-14T09:20:22.907Z,101061.94
2022-10-14T09:21:52.110Z,101063.25
2022-10-14T09:23:04.756Z,101068.50
2022-10-14T09:24:14.732Z,101067.06
2022-10-14T09:25:18.122Z,101060.34
2022-10-14T09:26:20.403Z,101055.47
2022-10-14T09:27:23.602Z,101066.31
2022-10-14T09:28:38.531Z,101065.19
2022-10-14T09:29:44.215Z,101065.09
2022-10-14T09:30:46.619Z,101065.34
2022-10-14T09:31:49.080Z,101067.88
2022-10-14T09:32:54.308Z,101065.97
2022-10-14T09:33:57.287Z,101067.94
2022-10-14T09:34:59.935Z,101062.03
2022-10-14T09:36:02.234Z,101058.88
2022-10-14T09:37:33.408Z,101065.84
2022-10-14T09:38:37.579Z,101060.25
2022-10-14T09:39:41.197Z,101059.28
2022-10-14T09:40:45.489Z,101066.84
2022-10-14T09:41:52.628Z,101055.88
2022-10-14T09:43:19.723Z,101064.78
2022-10-14T09:44:26.222Z,101062.22
2022-10-14T09:45:46.037Z,101055.41
2022-10-14T09:47:13.052Z,101057.81
2022-10-14T09:48:24.445Z,101061.88
2022-10-14T09:49:48.054Z,101054.13
2022-10-14T09:50:53.257Z,101056.22
2022-10-14T09:51:57.171Z,101054.34
2022-10-14T09:53:01.712Z,101059.38
2022-10-14T09:54:05.129Z,101059.00
2022-10-14T09:55:17.806Z,101057.00
2022-10-14T09:56:48.308Z,101055.66
2022-10-14T09:58:04.211Z,101061.53
2022-10-14T09:59:19.410Z,101058.56
2022-10-14T10:00:28.625Z,101058.88
2022-10-14T10:01:41.826Z,101055.22
2022-10-14T10:02:47.065Z,101056.69
2022-10-14T10:03:51.272Z,101048.84
2022-10-14T10:04:55.042Z,101050.59
2022-10-14T10:06:06.458Z,101052.06
2022-10-14T10:07:31.596Z,101046.00
2022-10-14T10:08:36.944Z,101050.16
2022-10-14T10:09:39.185Z,101057.34
2022-10-14T10:10:41.987Z,101051.25
2022-10-14T10:11:44.198Z,101053.34
2022-10-14T10:12:47.371Z,101040.78
2022-10-14T10:13:50.290Z,101050.16
2022-10-14T10:15:03.877Z,101051.34
2022-10-14T10:16:08.735Z,101043.28
2022-10-14T10:17:17.930Z,101045.56
2022-10-14T10:18:20.218Z,101046.75
2022-10-14T10:19:32.263Z,101053.25
2022-10-14T10:20:35.663Z,101050.56
2022-10-14T10:21:37.813Z,101050.75
2022-10-14T10:22:40.215Z,101042.81
2022-10-14T10:24:00.342Z,101044.47
2022-10-14T10:25:02.638Z,101040.22
2022-10-14T10:26:25.997Z,101036.78
2022-10-14T10:27:36.255Z,101039.88
2022-10-14T10:28:45.493Z,101037.53
2022-10-14T10:29:47.958Z,101040.63
2022-10-14T10:31:06.318Z,101045.34
2022-10-14T10:32:31.512Z,101041.31
2022-10-14T10:33:55.125Z,101033.94
2022-10-14T10:35:12.654Z,101039.75
2022-10-14T10:36:29.242Z,101033.25
2022-10-14T10:37:52.545Z,101022.81
2022-10-14T10:38:57.938Z,101039.06
2022-10-14T10:40:18.015Z,101031.03
2022-10-14T10:41:26.113Z,101029.50
2022-10-14T10:42:46.961Z,101025.91
2022-10-14T10:44:16.387Z,101022.19
2022-10-14T10:45:35.556Z,101017.59
2022-10-14T10:47:20.915Z,101011.78
2022-10-14T10:48:41.709Z,101019.44
2022-10-14T10:50:18.266Z,101012.00
2022-10-14T10:51:32.250Z,101014.03
2022-10-14T10:52:49.259Z,101009.63
2022-10-14T10:54:02.649Z,101009.41
2022-10-14T10:55:22.850Z,101011.69
2022-10-14T10:56:46.060Z,101005.03
2022-10-14T10:58:26.382Z,101011.19
2022-10-14T10:59:41.152Z,101009.94
2022-10-14T11:00:54.105Z,101006.59
2022-10-14T11:02:16.889Z,101004.84
2022-10-14T11:03:39.984Z,101008.16
2022-10-14T11:04:51.062Z,101000.50
2022-10-14T11:06:04.002Z,101004.06
2022-10-14T11:07:41.729Z,101005.97
2022-10-14T11:09:28.091Z,100996.56
2022-10-14T11:11:00.285Z,100999.19
2022-10-14T11:12:23.367Z,101000.38
2022-10-14T11:13:36.827Z,100992.25
2022-10-14T11:14:46.441Z,100990.81
2022-10-14T11:16:00.721Z,100999.16
2022-10-14T11:17:10.431Z,100998.41
2022-10-14T11:18:33.819Z,100993.41
2022-10-14T11:19:50.986Z,100989.44
2022-10-14T11:21:11.313Z,100994.63
2022-10-14T11:22:43.386Z,100981.72
2022-10-14T11:23:59.832Z,100985.72
2022-10-14T11:25:23.833Z,100985.09
2022-10-14T11:26:32.127Z,100979.97
2022-10-14T11:27:43.768Z,100977.34
2022-10-14T11:28:55.736Z,100979.50
2022-10-14T11:30:04.035Z,100975.72
2022-10-14T11:31:18.526Z,100964.09
2022-10-14T11:32:33.774Z,100971.09
2022-10-14T11:33:55.254Z,100972.09
2022-10-14T11:35:20.406Z,100966.09
2022-10-14T11:36:36.462Z,100974.00
2022-10-14T11:38:03.823Z,100964.84
2022-10-14T11:39:12.133Z,100960.38
2022-10-14T11:40:25.666Z,100960.69
2022-10-14T11:42:01.673Z,100957.47
2022-10-14T11:43:29.038Z,100951.88
2022-10-14T11:44:38.190Z,100961.56
2022-10-14T11:45:46.985Z,100960.66
2022-10-14T11:46:56.850Z,100960.84
2022-10-14T11:48:10.278Z,100960.13
2022-10-14T11:49:25.471Z,100957.78
2022-10-14T11:50:36.468Z,100948.28
2022-10-14T11:51:45.875Z,100953.38
2022-10-14T11:53:10.115Z,100951.41
2022-10-14T11:54:23.046Z,100937.09
2022-10-14T11:55:29.241Z,100940.72
2022-10-14T11:56:57.619Z,100940.38
2022-10-14T11:58:15.036Z,100931.31
2022-10-14T11:59:30.700Z,100939.88
2022-10-14T12:00:39.364Z,100931.78
2022-10-14T12:01:43.875Z,100937.13
2022-10-14T12:03:12.347Z,100934.22
2022-10-14T12:04:28.069Z,100931.31
2022-10-14T12:05:48.114Z,100935.91
2022-10-14T12:07:01.437Z,100925.25
2022-10-14T12:08:06.558Z,100935.63
2022-10-14T12:09:24.043Z,100933.34
2022-10-14T12:11:01.511Z,100934.00
2022-10-14T12:12:07.395Z,100927.53
2022-10-14T12:13:15.762Z,100937.22
2022-10-14T12:14:21.640Z,100942.13
2022-10-14T12:15:27.223Z,100936.03
2022-10-14T12:16:29.750Z,100930.16
2022-10-14T12:18:01.822Z,100937.81
2022-10-14T12:19:10.014Z,100931.06
2022-10-14T12:20:39.026Z,100932.59
2022-10-14T12:22:21.628Z,100929.16
2022-10-14T12:23:37.301Z,100923.81
2022-10-14T12:24:45.558Z,100930.50
2022-10-14T12:26:01.334Z,100922.72
2022-10-14T12:27:11.430Z,100925.53
2022-10-14T12:28:15.267Z,100915.34
2022-10-14T12:29:26.317Z,100925.44
2022-10-14T12:30:42.017Z,100913.06
2022-10-14T12:31:50.234Z,100914.06
2022-10-14T12:33:09.133Z,100915.56
2022-10-14T12:34:17.541Z,100911.22
2022-10-14T12:35:47.788Z,100912.59
2022-10-14T12:36:52.709Z,100904.81
2022-10-14T12:38:03.970Z,100906.06
2022-10-14T12:39:18.419Z,100915.59
2022-10-14T12:40:26.394Z,100908.34
2022-10-14T12:41:37.253Z,100914.44
2022-10-14T12:42:59.797Z,100904.69
2022-10-14T12:44:14.285Z,100908.41
2022-10-14T12:45:22.739Z,100912.81
2022-10-14T12:46:25.346Z,100902.97
2022-10-14T12:47:37.311Z,100900.53
2022-10-14T12:48:50.909Z,100899.25
2022-10-14T12:49:56.543Z,100897.00
2022-10-14T12:51:28.867Z,100893.63
2022-10-14T12:52:37.587Z,100901.81
2022-10-14T12:53:48.964Z,100894.66
2022-10-14T12:56:02.349Z,100896.88
2022-10-14T12:57:18.225Z,100902.81
2022-10-14T12:58:57.705Z,100902.75
2022-10-14T13:00:04.423Z,100900.59
2022-10-14T13:01:19.203Z,100892.34
2022-10-14T13:02:35.898Z,100897.50
2022-10-14T13:03:43.546Z,100895.06